Humnoke, Arkansas
Current Conditions -  °F | °C
As of 7:35 AM on Friday 19 Dec 2014 (Local Time) from KSGT Reporting Station
Overcast Overcast  
Wind Chill: 34°   Ceiling: 1700
Heat Index: 39°   Visibility: NA
Dew Point: 37°   Wind: 8mph
Humidity: 93%   Direction: 30°NNE
Pressure: 30.26"   Gusts: NA
Location:  34.54°N, 91.76°W
Report Text: KSGT 191335Z 03007KT OVC017 04/03 A3026 RMK AO1
Loading
Personal Weather Stations






























Interactive Weather Map New forecast layout! Learn more

10-Day Weather Forecast

Advertisements
Track Severe Weather on mobile